KAID/AID METAR and TAF weather

Enter ICAO airport designator
Station Type Date Time Source
KAID METAR 2019/04/25 19:59 UTC NOAA

KAID 251959Z 06003KT 7SM -RA SCT005 OVC017 16/15 A2971


Station Type Date Time Source
KAID Decoded METAR 2019/04/25 19:59 UTC NOAA

Anderson Municipal, IN, United States (KAID) 40-07N 085-37W
Apr 25, 2019 - 03:59 PM EDT / 2019.04.25 1959 UTC
Wind: from the ENE (060 degrees) at 3 MPH (3 KT):0
Visibility: 7 mile(s):0
Sky conditions: overcast
Weather: light rain
Temperature: 60 F (16 C)
Dew Point: 59 F (15 C)
Relative Humidity: 93%
Pressure (altimeter): 29.71 in. Hg (1006 hPa)
ob: KAID 251959Z 06003KT 7SM -RA SCT005 OVC017 16/15 A2971
cycle: 20

Station Type Date Time Source
KAID TAF UTC NOAA

Error!

Example: see airport list